Time;durP1;ratioP1;P1;durP2;ratioP2;P2;SDS_P1;SDS_P2;PMS_P1;PMS_P2;Temp;Humidity;BMP_temperature;BMP_pressure;BME280_temperature;BME280_humidity;BME280_pressure;Samples;Min_cycle;Max_cycle;Signal;HPM_P1;HPM_P2
2022/06/22 00:02:30;;;;;;;11.27;7.63;;;22.10;86.60;;;;;;5052299;28;21047;-51
2022/06/22 00:05:01;;;;;;;8.47;7.63;;;22.10;86.40;;;;;;5055616;28;21425;-50
2022/06/22 00:07:33;;;;;;;8.27;7.33;;;22.10;85.20;;;;;;5054156;28;20478;-50
2022/06/22 00:10:07;;;;;;;7.10;6.27;;;22.10;85.10;;;;;;5053343;28;20477;-50
2022/06/22 00:12:35;;;;;;;7.80;6.97;;;22.10;84.80;;;;;;5058774;28;20485;-51
2022/06/22 00:15:03;;;;;;;8.80;6.70;;;22.10;84.50;;;;;;5051658;28;20903;-51
2022/06/22 00:17:35;;;;;;;12.33;6.83;;;22.10;84.40;;;;;;5055293;28;20828;-51
2022/06/22 00:20:08;;;;;;;8.90;7.10;;;22.10;84.20;;;;;;5054334;28;20486;-51
2022/06/22 00:22:47;;;;;;;8.47;6.63;;;22.20;84.10;;;;;;5050161;28;20474;-51
2022/06/22 00:25:22;;;;;;;7.40;6.77;;;22.20;84.30;;;;;;5037767;28;20482;-53
2022/06/22 00:27:49;;;;;;;7.50;6.67;;;22.30;84.70;;;;;;5047380;28;20474;-51
2022/06/22 00:30:31;;;;;;;7.50;5.70;;;22.20;84.30;;;;;;5050538;28;20570;-52
2022/06/22 00:33:15;;;;;;;8.07;6.50;;;22.20;85.00;;;;;;5049638;28;20510;-51
2022/06/22 00:35:49;;;;;;;11.23;8.57;;;22.20;84.90;;;;;;5013823;28;20501;-51
2022/06/22 00:38:18;;;;;;;8.47;7.67;;;22.30;85.50;;;;;;5055934;28;21022;-52
2022/06/22 00:40:49;;;;;;;7.33;6.63;;;22.20;85.80;;;;;;5055682;28;20626;-53
2022/06/22 00:43:17;;;;;;;7.70;6.90;;;22.20;86.60;;;;;;5056947;28;20471;-52
2022/06/22 00:45:44;;;;;;;7.20;6.30;;;22.20;86.20;;;;;;5040741;28;20875;-51
2022/06/22 00:48:24;;;;;;;7.33;6.60;;;22.10;84.30;;;;;;5046181;28;20484;-51
2022/06/22 00:50:57;;;;;;;7.87;7.00;;;22.00;83.80;;;;;;5040182;28;20506;-51
2022/06/22 00:53:31;;;;;;;7.27;6.57;;;21.90;82.70;;;;;;5055216;28;20543;-50
2022/06/22 00:56:05;;;;;;;6.90;6.07;;;21.90;83.80;;;;;;5051485;28;21033;-50
2022/06/22 00:58:40;;;;;;;7.60;6.93;;;21.70;83.40;;;;;;5056556;28;20490;-51
2022/06/22 01:01:21;;;;;;;15.23;7.17;;;21.70;83.40;;;;;;5055628;28;20549;-51
2022/06/22 01:03:55;;;;;;;7.63;6.20;;;21.70;83.10;;;;;;5045440;28;20498;-51
2022/06/22 01:06:28;;;;;;;13.30;5.67;;;21.70;82.60;;;;;;5057125;28;20478;-51
2022/06/22 01:09:03;;;;;;;6.37;5.87;;;21.70;82.70;;;;;;5048169;28;20814;-51
2022/06/22 01:14:25;;;;;;;7.30;5.80;;;21.80;82.10;;;;;;5028534;28;20502;-51
2022/06/22 01:16:54;;;;;;;7.57;6.10;;;21.80;82.00;;;;;;5059363;28;20490;-51
2022/06/22 01:19:38;;;;;;;5.90;5.30;;;21.80;81.60;;;;;;5061324;28;20853;-51
2022/06/22 01:22:23;;;;;;;8.80;5.40;;;21.80;81.80;;;;;;5059331;28;20478;-51
2022/06/22 01:25:00;;;;;;;9.07;5.60;;;21.80;81.60;;;;;;5043616;28;20572;-51
2022/06/22 01:27:33;;;;;;;7.53;5.40;;;21.70;81.40;;;;;;5046975;28;20911;-51
2022/06/22 01:30:03;;;;;;;5.23;4.87;;;21.70;81.60;;;;;;5058628;28;20522;-51
2022/06/22 01:32:32;;;;;;;8.67;5.30;;;21.60;80.20;;;;;;5061430;28;20487;-51
2022/06/22 01:35:02;;;;;;;5.93;5.40;;;21.70;81.00;;;;;;5058580;28;20946;-51
2022/06/22 01:37:32;;;;;;;8.03;5.83;;;21.70;80.20;;;;;;5058210;28;20487;-51
2022/06/22 01:40:07;;;;;;;7.67;6.27;;;21.70;80.80;;;;;;5059122;28;20507;-52
2022/06/22 01:42:44;;;;;;;6.67;6.03;;;21.70;80.80;;;;;;5056893;28;20553;-51
2022/06/22 01:45:19;;;;;;;6.00;5.50;;;21.70;80.80;;;;;;5061064;28;20484;-51
2022/06/22 01:47:51;;;;;;;7.43;5.40;;;21.60;80.90;;;;;;5060126;28;20975;-51
2022/06/22 01:50:26;;;;;;;6.33;5.17;;;21.60;80.50;;;;;;5060375;28;20825;-51
2022/06/22 01:53:02;;;;;;;11.83;5.80;;;21.50;79.60;;;;;;5053969;28;20478;-52
2022/06/22 01:55:33;;;;;;;5.83;5.30;;;;;;;;;;5058758;28;20490;-51
2022/06/22 01:58:11;;;;;;;7.53;5.57;;;21.50;80.00;;;;;;5057240;28;20513;-51
2022/06/22 02:00:38;;;;;;;6.43;5.83;;;21.50;80.20;;;;;;5046382;28;21018;-51
2022/06/22 02:03:13;;;;;;;6.43;5.83;;;21.40;80.00;;;;;;5064874;28;20484;-52
2022/06/22 02:05:44;;;;;;;5.83;4.87;;;21.30;80.50;;;;;;5048195;28;20482;-52
2022/06/22 02:08:16;;;;;;;6.70;5.17;;;21.30;80.70;;;;;;5047200;28;20991;-51
2022/06/22 02:10:48;;;;;;;6.70;6.10;;;21.20;80.70;;;;;;5044506;28;20524;-51
2022/06/22 02:13:29;;;;;;;5.90;5.40;;;21.30;80.90;;;;;;5058550;28;20990;-51
2022/06/22 02:16:04;;;;;;;6.10;5.50;;;21.30;81.10;;;;;;5051988;28;20521;-51
2022/06/22 02:18:36;;;;;;;8.40;6.53;;;21.30;81.10;;;;;;5057470;28;20478;-51
2022/06/22 02:21:17;;;;;;;11.83;6.50;;;21.30;81.50;;;;;;5031480;28;20463;-51
2022/06/22 02:23:45;;;;;;;7.00;5.30;;;21.30;81.30;;;;;;5059729;28;21039;-51
2022/06/22 02:26:19;;;;;;;9.73;6.17;;;21.30;80.50;;;;;;5049174;28;20475;-52
2022/06/22 02:28:47;;;;;;;5.47;4.90;;;21.30;80.50;;;;;;5059174;28;20484;-51
2022/06/22 02:31:17;;;;;;;6.13;5.53;;;21.20;80.60;;;;;;5060320;28;20582;-51
2022/06/22 02:33:48;;;;;;;5.97;5.47;;;21.20;81.10;;;;;;5052373;28;20502;-51
2022/06/22 02:36:15;;;;;;;5.97;5.37;;;21.20;80.70;;;;;;5053940;28;20482;-51
2022/06/22 02:38:45;;;;;;;17.63;6.43;;;21.20;81.10;;;;;;5039372;28;20491;-51
2022/06/22 02:46:45;;;;;;;6.30;5.70;;;21.10;80.70;;;;;;5046710;28;20486;-51
2022/06/22 02:49:23;;;;;;;6.77;6.03;;;21.00;80.90;;;;;;5057274;28;20564;-52
2022/06/22 02:51:52;;;;;;;4.97;4.53;;;20.90;80.80;;;;;;5044886;28;20479;-52
2022/06/22 02:54:31;;;;;;;6.30;5.70;;;20.90;81.50;;;;;;5060950;28;20844;-52
2022/06/22 02:57:12;;;;;;;5.70;5.10;;;20.90;81.10;;;;;;5051510;28;20479;-52
2022/06/22 02:59:42;;;;;;;9.13;6.17;;;20.90;83.30;;;;;;5048562;28;20479;-52
2022/06/22 03:02:09;;;;;;;11.80;6.87;;;20.90;83.60;;;;;;5042253;28;20467;-52
2022/06/22 03:04:37;;;;;;;5.90;5.37;;;20.80;84.10;;;;;;5021017;28;21064;-52
2022/06/22 03:07:05;;;;;;;6.37;5.77;;;20.80;83.00;;;;;;5021772;28;21103;-51
2022/06/22 03:09:32;;;;;;;10.50;8.37;;;20.80;83.00;;;;;;5000217;28;20983;-52
2022/06/22 03:12:00;;;;;;;8.30;6.20;;;20.80;83.80;;;;;;4996611;28;20493;-52
2022/06/22 03:14:31;;;;;;;9.47;5.67;;;20.90;82.50;;;;;;5013821;28;20512;-51
2022/06/22 03:17:01;;;;;;;6.77;6.07;;;20.80;82.50;;;;;;4974980;28;20874;-51
2022/06/22 03:19:35;;;;;;;11.33;6.40;;;20.70;85.00;;;;;;5004501;28;20506;-52
2022/06/22 03:22:02;;;;;;;6.43;5.70;;;20.70;85.60;;;;;;4999400;28;20496;-52
2022/06/22 03:24:40;;;;;;;5.90;5.40;;;20.40;87.00;;;;;;5030222;28;20482;-52
2022/06/22 03:27:15;;;;;;;12.40;6.50;;;20.40;86.80;;;;;;4986902;28;20862;-52
2022/06/22 03:29:46;;;;;;;7.07;6.37;;;20.20;86.80;;;;;;5042261;28;21049;-52
2022/06/22 03:32:23;;;;;;;6.93;6.20;;;20.20;86.60;;;;;;5031308;28;20497;-52
2022/06/22 03:34:55;;;;;;;6.43;5.87;;;20.20;87.20;;;;;;5015365;28;21011;-53
2022/06/22 03:37:31;;;;;;;9.83;6.73;;;20.20;87.50;;;;;;5042962;28;20884;-53
2022/06/22 03:40:01;;;;;;;6.90;6.20;;;20.20;88.30;;;;;;5003108;28;20482;-52
2022/06/22 03:42:33;;;;;;;9.77;5.40;;;20.20;88.00;;;;;;5026878;28;20470;-52
2022/06/22 03:45:05;;;;;;;6.07;5.53;;;20.20;87.60;;;;;;4975961;28;20491;-53
2022/06/22 03:47:38;;;;;;;7.00;5.90;;;20.10;88.20;;;;;;5018694;28;20501;-52
2022/06/22 03:50:10;;;;;;;6.70;6.10;;;19.80;89.20;;;;;;4993553;28;20505;-53
2022/06/22 03:52:43;;;;;;;7.10;6.43;;;19.70;90.10;;;;;;5014060;28;20490;-52
2022/06/22 03:55:13;;;;;;;6.50;5.93;;;19.70;90.10;;;;;;4992749;28;21006;-52
2022/06/22 03:57:44;;;;;;;8.13;6.63;;;19.70;89.70;;;;;;5026318;28;20605;-52
2022/06/22 04:00:14;;;;;;;5.90;5.40;;;19.80;88.90;;;;;;4991306;28;20482;-52
2022/06/22 04:02:42;;;;;;;7.57;6.50;;;19.90;88.40;;;;;;5010337;28;20961;-53
2022/06/22 04:05:15;;;;;;;8.13;6.23;;;19.90;88.50;;;;;;5027298;28;20943;-53
2022/06/22 04:07:43;;;;;;;7.00;6.40;;;19.90;89.10;;;;;;5023163;28;20510;-52
2022/06/22 04:10:34;;;;;;;6.80;6.10;;;20.00;87.70;;;;;;5045245;28;20889;-52
2022/06/22 04:13:05;;;;;;;9.07;8.17;;;20.00;88.00;;;;;;5053126;28;20832;-52
2022/06/22 04:15:38;;;;;;;8.60;7.20;;;20.00;87.00;;;;;;4994176;28;20773;-52
2022/06/22 04:18:12;;;;;;;8.27;7.50;;;20.00;87.50;;;;;;5000301;28;20982;-52
2022/06/22 04:20:51;;;;;;;11.90;6.63;;;20.20;87.40;;;;;;5009358;28;21136;-51
2022/06/22 04:23:24;;;;;;;7.87;6.53;;;20.10;87.20;;;;;;5050877;28;20471;-52
2022/06/22 04:25:53;;;;;;;8.20;5.70;;;20.20;87.90;;;;;;5059918;28;20486;-52
2022/06/22 04:28:21;;;;;;;7.63;6.40;;;20.30;86.90;;;;;;5053550;28;21057;-52
2022/06/22 04:30:52;;;;;;;7.50;6.50;;;20.40;86.90;;;;;;5057832;28;20924;-52
2022/06/22 04:33:25;;;;;;;7.87;5.90;;;20.50;86.30;;;;;;5050587;28;20536;-52
2022/06/22 04:35:56;;;;;;;7.00;6.30;;;20.50;86.00;;;;;;5059190;28;20487;-52
2022/06/22 04:38:28;;;;;;;6.93;6.33;;;20.50;86.70;;;;;;5059951;28;20490;-52
2022/06/22 04:41:00;;;;;;;8.13;7.33;;;20.60;86.50;;;;;;5053002;28;20489;-52
2022/06/22 04:43:27;;;;;;;6.77;6.17;;;20.60;86.20;;;;;;5061287;28;20485;-52
2022/06/22 04:45:54;;;;;;;8.77;6.50;;;20.60;86.10;;;;;;5054373;28;20482;-52
2022/06/22 04:48:26;;;;;;;6.50;5.90;;;20.60;86.70;;;;;;5056428;28;20494;-52
2022/06/22 04:50:58;;;;;;;9.17;6.70;;;20.60;85.80;;;;;;5061462;28;20732;-52
2022/06/22 04:53:29;;;;;;;6.53;5.87;;;20.60;86.70;;;;;;5060079;28;21059;-52
2022/06/22 04:55:59;;;;;;;8.17;6.90;;;20.60;86.50;;;;;;5058928;28;20473;-52
2022/06/22 04:58:34;;;;;;;7.47;5.20;;;20.60;86.20;;;;;;5058620;28;20487;-52
2022/06/22 05:01:01;;;;;;;9.70;6.27;;;20.60;86.00;;;;;;5060905;28;20555;-52
2022/06/22 05:03:31;;;;;;;8.43;6.70;;;20.50;86.60;;;;;;5052149;28;20485;-52
2022/06/22 05:06:03;;;;;;;7.20;6.60;;;20.50;87.40;;;;;;5049510;28;20484;-52
2022/06/22 05:08:37;;;;;;;9.83;6.50;;;20.50;86.20;;;;;;5058025;28;20519;-52
2022/06/22 05:11:12;;;;;;;7.90;6.17;;;20.50;87.00;;;;;;5049866;28;20475;-52
2022/06/22 05:13:42;;;;;;;9.40;6.70;;;20.50;86.90;;;;;;5050841;28;20500;-52
2022/06/22 05:16:14;;;;;;;6.30;5.70;;;20.60;87.80;;;;;;5047384;28;20847;-53
2022/06/22 05:18:44;;;;;;;6.40;5.80;;;20.60;86.30;;;;;;5059507;28;20485;-52
2022/06/22 05:21:17;;;;;;;6.30;5.70;;;20.60;86.90;;;;;;5060389;28;20483;-54
2022/06/22 05:23:47;;;;;;;7.53;5.40;;;20.80;86.10;;;;;;5050969;28;20485;-52
2022/06/22 05:26:18;;;;;;;6.53;5.83;;;20.80;85.60;;;;;;5061299;28;20484;-53
2022/06/22 05:28:49;;;;;;;6.47;5.87;;;20.90;85.10;;;;;;5032387;28;20481;-51
2022/06/22 05:31:21;;;;;;;9.00;6.43;;;20.90;85.70;;;;;;5029486;28;20482;-52
2022/06/22 05:33:51;;;;;;;8.50;6.50;;;21.00;84.50;;;;;;5026468;28;20508;-51
2022/06/22 05:36:21;;;;;;;5.90;5.13;;;21.00;84.80;;;;;;5030520;28;20488;-51
2022/06/22 05:38:51;;;;;;;9.87;6.13;;;21.00;84.00;;;;;;5058565;28;20903;-51
2022/06/22 05:41:21;;;;;;;5.70;5.30;;;21.10;84.10;;;;;;5051170;28;20490;-51
2022/06/22 05:43:48;;;;;;;6.83;5.67;;;21.00;83.90;;;;;;5033980;28;20466;-51
2022/06/22 05:46:16;;;;;;;7.10;5.20;;;21.00;83.90;;;;;;5055857;28;20475;-51
2022/06/22 05:48:45;;;;;;;5.93;5.43;;;21.00;83.90;;;;;;5050697;28;21100;-51
2022/06/22 05:51:18;;;;;;;7.60;5.20;;;21.00;84.30;;;;;;5064216;28;20481;-52
2022/06/22 05:53:50;;;;;;;9.10;5.60;;;21.00;84.30;;;;;;5056559;28;20489;-51
2022/06/22 05:56:23;;;;;;;6.00;5.10;;;21.20;84.90;;;;;;5028995;28;20483;-51
2022/06/22 05:58:54;;;;;;;6.30;5.80;;;21.20;84.70;;;;;;5056743;28;20474;-52
2022/06/22 06:01:28;;;;;;;6.70;5.33;;;21.20;84.60;;;;;;5059998;28;20508;-51
2022/06/22 06:04:02;;;;;;;5.97;5.53;;;21.40;83.90;;;;;;5052486;28;20972;-52
2022/06/22 06:06:36;;;;;;;5.20;4.80;;;21.60;82.60;;;;;;5060171;28;20475;-52
2022/06/22 06:09:07;;;;;;;6.10;5.43;;;21.60;82.60;;;;;;5057726;28;20482;-52
2022/06/22 06:11:38;;;;;;;5.77;5.27;;;21.70;82.60;;;;;;5058961;28;20486;-51
2022/06/22 06:14:11;;;;;;;5.33;4.93;;;21.80;82.50;;;;;;5055705;28;20479;-52
2022/06/22 06:16:45;;;;;;;6.70;5.40;;;21.80;85.20;;;;;;5057521;28;20506;-51
2022/06/22 06:19:14;;;;;;;9.00;5.60;;;21.80;85.60;;;;;;5054544;28;22177;-52
2022/06/22 06:21:42;;;;;;;5.73;5.20;;;21.80;83.70;;;;;;5058872;28;20491;-51
2022/06/22 06:24:15;;;;;;;5.70;4.83;;;21.80;84.30;;;;;;5058790;28;20486;-52
2022/06/22 06:29:38;;;;;;;6.90;5.80;;;21.90;85.20;;;;;;5060186;28;20531;-51
2022/06/22 06:32:26;;;;;;;6.07;4.97;;;22.00;83.50;;;;;;5058873;28;20545;-51
2022/06/22 06:34:57;;;;;;;6.87;6.37;;;22.00;82.90;;;;;;5058973;28;20478;-50
2022/06/22 06:37:39;;;;;;;5.10;4.60;;;22.10;82.70;;;;;;5057128;28;20565;-51
2022/06/22 06:40:12;;;;;;;4.50;3.83;;;22.10;82.30;;;;;;5056845;28;20510;-51
2022/06/22 06:42:45;;;;;;;6.70;5.10;;;22.10;81.70;;;;;;5053917;28;21086;-50
2022/06/22 06:45:17;;;;;;;5.10;4.60;;;22.10;81.80;;;;;;5058274;28;20467;-51
2022/06/22 06:47:48;;;;;;;6.77;4.70;;;22.10;82.50;;;;;;5057029;28;20490;-51
2022/06/22 06:50:19;;;;;;;6.50;5.50;;;22.20;82.30;;;;;;5060826;28;20474;-51
2022/06/22 06:52:58;;;;;;;8.00;5.13;;;22.30;81.30;;;;;;5055476;28;21055;-51
2022/06/22 06:55:34;;;;;;;5.60;4.70;;;22.40;81.60;;;;;;5046088;28;20996;-52
2022/06/22 06:58:12;;;;;;;7.60;5.13;;;22.50;82.10;;;;;;5053624;28;21109;-52
2022/06/22 07:00:39;;;;;;;4.20;3.80;;;22.50;81.40;;;;;;5057073;28;21051;-51
2022/06/22 07:03:09;;;;;;;4.70;4.30;;;22.40;80.50;;;;;;5050622;28;20484;-51
2022/06/22 07:05:35;;;;;;;6.00;4.50;;;22.40;79.80;;;;;;5051830;28;20487;-51
2022/06/22 07:08:10;;;;;;;4.67;4.27;;;22.40;79.60;;;;;;5056695;28;20479;-52
2022/06/22 07:10:43;;;;;;;4.43;4.13;;;22.30;79.20;;;;;;5048605;28;20478;-51
2022/06/22 07:13:15;;;;;;;5.00;4.50;;;22.30;79.80;;;;;;5050782;28;20484;-52
2022/06/22 07:15:47;;;;;;;5.53;5.07;;;22.30;80.40;;;;;;5053249;28;21019;-54
2022/06/22 07:18:19;;;;;;;5.87;4.30;;;22.20;80.50;;;;;;5058331;28;20729;-51
2022/06/22 07:20:51;;;;;;;5.97;4.97;;;22.20;80.50;;;;;;5056020;28;20494;-51
2022/06/22 07:23:23;;;;;;;8.50;4.63;;;22.20;80.50;;;;;;5048449;28;20485;-51
2022/06/22 07:25:52;;;;;;;5.63;4.33;;;22.20;80.70;;;;;;5044239;28;20507;-51
2022/06/22 07:28:24;;;;;;;5.37;4.70;;;22.20;80.90;;;;;;5058634;28;20466;-51
2022/06/22 07:30:54;;;;;;;4.97;4.57;;;22.30;82.30;;;;;;5056958;28;20499;-51
2022/06/22 07:33:27;;;;;;;6.03;4.80;;;22.30;80.80;;;;;;5056081;28;20471;-52
2022/06/22 07:36:00;;;;;;;6.90;4.33;;;22.40;80.30;;;;;;5055855;28;20486;-51
2022/06/22 07:38:36;;;;;;;4.57;4.20;;;22.40;80.00;;;;;;5058700;28;20482;-51
2022/06/22 07:41:23;;;;;;;5.87;5.20;;;22.50;80.70;;;;;;5053126;28;21022;-51
2022/06/22 07:43:55;;;;;;;7.33;4.53;;;22.40;79.20;;;;;;5054939;28;20558;-51
2022/06/22 07:46:30;;;;;;;4.60;4.20;;;22.40;79.50;;;;;;5055737;28;20514;-51
2022/06/22 07:49:03;;;;;;;6.90;5.00;;;22.30;79.40;;;;;;5056235;28;20477;-51
2022/06/22 07:51:32;;;;;;;6.07;3.70;;;22.30;80.30;;;;;;5045076;28;20980;-52
2022/06/22 07:54:06;;;;;;;4.77;4.20;;;22.20;80.30;;;;;;5058274;28;20482;-52
2022/06/22 07:56:43;;;;;;;4.70;4.30;;;22.20;81.10;;;;;;5056671;28;20475;-52
2022/06/22 07:59:15;;;;;;;5.60;4.80;;;22.10;81.60;;;;;;5048805;28;20486;-52
2022/06/22 08:01:44;;;;;;;4.30;4.00;;;22.10;82.20;;;;;;5057469;28;20494;-52
2022/06/22 08:04:17;;;;;;;4.57;3.97;;;22.10;82.80;;;;;;5059884;28;20482;-52
2022/06/22 08:06:48;;;;;;;5.40;4.90;;;22.10;83.10;;;;;;5056024;28;20487;-51
2022/06/22 08:09:19;;;;;;;6.20;5.60;;;22.10;84.40;;;;;;5045666;28;20474;-52
2022/06/22 08:11:50;;;;;;;6.80;5.00;;;22.20;83.80;;;;;;5063265;28;21070;-52
2022/06/22 08:14:23;;;;;;;5.20;4.70;;;22.20;84.60;;;;;;5051132;28;20762;-51
2022/06/22 08:16:54;;;;;;;5.27;4.70;;;22.30;82.80;;;;;;5017397;28;20471;-51
2022/06/22 08:19:21;;;;;;;5.73;5.23;;;22.30;83.30;;;;;;5058311;28;20570;-52
2022/06/22 08:21:52;;;;;;;4.87;4.13;;;22.10;84.70;;;;;;5057894;28;20486;-52
2022/06/22 08:24:21;;;;;;;8.50;5.07;;;22.00;84.30;;;;;;5055232;28;20471;-51
2022/06/22 08:26:51;;;;;;;6.37;5.30;;;21.90;85.10;;;;;;5045657;28;21009;-52
2022/06/22 08:29:22;;;;;;;7.00;5.97;;;21.70;85.90;;;;;;5061958;28;20483;-52
2022/06/22 08:31:53;;;;;;;6.37;5.87;;;21.60;87.20;;;;;;5049320;28;20483;-51
2022/06/22 08:34:27;;;;;;;6.47;5.97;;;21.40;89.10;;;;;;5067976;28;20972;-51
2022/06/22 08:37:05;;;;;;;11.23;7.37;;;21.10;90.40;;;;;;5046888;28;20578;-52
2022/06/22 08:39:38;;;;;;;8.33;7.07;;;21.00;90.80;;;;;;5054622;28;20546;-51
2022/06/22 08:42:21;;;;;;;8.27;7.30;;;21.10;90.60;;;;;;5054033;28;20498;-51
2022/06/22 08:45:05;;;;;;;10.00;6.80;;;21.20;90.50;;;;;;5057227;28;20482;-51
2022/06/22 08:47:53;;;;;;;6.97;6.37;;;21.40;90.30;;;;;;5047587;28;20495;-51
2022/06/22 08:50:49;;;;;;;8.83;7.43;;;21.30;90.70;;;;;;5053647;28;20475;-51
2022/06/22 08:53:34;;;;;;;9.53;6.57;;;21.30;90.70;;;;;;5033630;28;21246;-52
2022/06/22 08:56:14;;;;;;;9.10;8.20;;;21.30;90.80;;;;;;5051067;28;20540;-51
2022/06/22 08:59:14;;;;;;;10.80;8.10;;;21.40;90.80;;;;;;5058338;28;20479;-52
2022/06/22 09:01:55;;;;;;;8.83;7.53;;;21.60;90.60;;;;;;5056690;28;20485;-51
2022/06/22 09:04:39;;;;;;;9.07;8.17;;;21.80;90.50;;;;;;5057745;28;20857;-51
2022/06/22 09:07:28;;;;;;;8.50;7.70;;;22.00;90.40;;;;;;5054502;28;20582;-51
2022/06/22 09:10:17;;;;;;;9.97;9.07;;;22.00;90.70;;;;;;5057466;28;20466;-51
2022/06/22 09:13:06;;;;;;;9.93;8.30;;;22.20;90.60;;;;;;5061353;28;20490;-51
2022/06/22 09:15:50;;;;;;;9.20;7.33;;;22.40;90.30;;;;;;5055431;28;20929;-52
2022/06/22 09:18:35;;;;;;;8.53;7.20;;;22.50;90.20;;;;;;5060353;28;20481;-51
2022/06/22 09:21:15;;;;;;;7.33;6.57;;;22.60;90.20;;;;;;5050502;28;20482;-52
2022/06/22 09:23:53;;;;;;;8.83;8.03;;;22.70;90.60;;;;;;5051299;28;20471;-52
2022/06/22 09:26:29;;;;;;;9.03;8.23;;;22.70;90.50;;;;;;5050636;28;20485;-53
2022/06/22 09:29:01;;;;;;;9.83;8.97;;;22.60;90.30;;;;;;5058768;28;20485;-51
2022/06/22 09:31:54;;;;;;;11.53;8.23;;;22.60;90.00;;;;;;5060252;28;20861;-51
2022/06/22 09:34:46;;;;;;;7.70;7.10;;;22.60;90.00;;;;;;5066095;28;20922;-51
2022/06/22 09:37:37;;;;;;;7.90;7.20;;;22.70;89.70;;;;;;5058125;28;20471;-51
2022/06/22 09:40:19;;;;;;;8.60;7.90;;;22.80;90.30;;;;;;5046687;28;20534;-52
2022/06/22 09:43:22;;;;;;;8.17;7.30;;;22.80;89.00;;;;;;5056485;28;20486;-52
2022/06/22 09:46:12;;;;;;;8.77;7.97;;;22.80;88.90;;;;;;5055582;28;20483;-50
2022/06/22 09:49:14;;;;;;;7.57;6.87;;;22.80;89.20;;;;;;5060188;28;20478;-51
2022/06/22 09:52:06;;;;;;;11.80;7.20;;;22.80;89.40;;;;;;5010589;28;20482;-51
2022/06/22 09:57:55;;;;;;;9.00;7.67;;;22.80;89.60;;;;;;5049634;28;20575;-51
2022/06/22 10:00:29;;;;;;;7.70;6.90;;;22.80;89.80;;;;;;5061566;28;20481;-52
2022/06/22 10:03:20;;;;;;;10.10;8.50;;;22.90;90.10;;;;;;5059155;28;20479;-50
2022/06/22 10:06:23;;;;;;;11.10;9.50;;;23.00;90.00;;;;;;5053450;28;20485;-51
2022/06/22 10:09:07;;;;;;;9.77;8.60;;;23.10;90.00;;;;;;5057997;28;20485;-53
2022/06/22 10:11:43;;;;;;;8.93;8.13;;;23.30;90.50;;;;;;5056362;28;21336;-52
2022/06/22 10:14:40;;;;;;;9.50;8.60;;;23.40;89.50;;;;;;5055919;28;20475;-51
2022/06/22 10:17:31;;;;;;;9.67;8.77;;;23.40;89.80;;;;;;5054008;28;20862;-51
2022/06/22 10:20:16;;;;;;;9.50;8.13;;;23.50;89.50;;;;;;5058148;28;20475;-52
2022/06/22 10:22:58;;;;;;;10.87;8.43;;;23.40;89.70;;;;;;5058108;28;20891;-52
2022/06/22 10:25:50;;;;;;;11.73;8.57;;;23.40;90.00;;;;;;5057027;28;20479;-52
2022/06/22 10:28:36;;;;;;;9.60;8.63;;;23.40;90.10;;;;;;5047485;28;20608;-52
2022/06/22 10:31:12;;;;;;;12.30;9.93;;;23.40;90.00;;;;;;5057740;28;20573;-52
2022/06/22 10:34:21;;;;;;;12.33;9.30;;;23.50;90.20;;;;;;5052537;28;20490;-52
2022/06/22 10:37:14;;;;;;;11.07;9.00;;;23.50;90.10;;;;;;5051527;28;20953;-52
2022/06/22 10:40:11;;;;;;;11.57;8.50;;;23.60;90.10;;;;;;5052213;28;20467;-52
2022/06/22 10:45:45;;;;;;;10.13;9.10;;;23.80;90.70;;;;;;5053867;28;20779;-52
2022/06/22 10:48:34;;;;;;;13.43;9.70;;;24.00;90.20;;;;;;5050802;28;20488;-53
2022/06/22 10:51:09;;;;;;;10.50;9.60;;;24.10;90.20;;;;;;5051157;28;20485;-52
2022/06/22 10:54:08;;;;;;;13.60;10.00;;;24.20;90.40;;;;;;5053670;28;20482;-52
2022/06/22 10:56:59;;;;;;;11.43;10.30;;;24.40;90.30;;;;;;5057129;28;20481;-52
2022/06/22 10:59:46;;;;;;;11.20;9.90;;;24.60;90.30;;;;;;5052510;28;20467;-53
2022/06/22 11:02:47;;;;;;;10.97;9.77;;;24.70;90.00;;;;;;5047024;28;20959;-53
2022/06/22 11:05:40;;;;;;;11.17;9.40;;;24.90;90.00;;;;;;5058977;28;20483;-53
2022/06/22 11:08:26;;;;;;;9.80;8.90;;;24.80;89.60;;;;;;5058602;28;20479;-52
2022/06/22 11:11:06;;;;;;;13.30;10.87;;;24.90;90.10;;;;;;5045743;28;20478;-53
2022/06/22 11:13:59;;;;;;;14.00;10.50;;;25.10;88.90;;;;;;5059001;28;20523;-52
2022/06/22 11:16:45;;;;;;;9.70;8.77;;;25.10;89.00;;;;;;5055736;28;20478;-53
2022/06/22 11:19:45;;;;;;;10.80;9.77;;;25.10;88.90;;;;;;5056485;28;20468;-53
2022/06/22 11:22:24;;;;;;;11.67;10.67;;;25.10;89.60;;;;;;5057701;28;20464;-53
2022/06/22 11:31:31;;;;;;;11.17;10.17;;;24.90;90.20;;;;;;5033543;28;20848;-52
2022/06/22 11:34:20;;;;;;;10.60;9.57;;;25.00;90.50;;;;;;5044855;28;20478;-52
2022/06/22 11:36:58;;;;;;;12.33;10.30;;;25.10;90.20;;;;;;5051387;28;20481;-52
2022/06/22 11:39:46;;;;;;;10.40;9.40;;;25.10;90.70;;;;;;5054376;28;20498;-52
2022/06/22 11:42:23;;;;;;;11.73;10.53;;;25.10;90.60;;;;;;5048627;28;20481;-52
2022/06/22 11:48:21;;;;;;;12.40;11.10;;;25.10;90.30;;;;;;5060836;28;20477;-52
2022/06/22 11:51:02;;;;;;;12.00;10.27;;;25.10;90.40;;;;;;5047789;28;20650;-52
2022/06/22 11:53:47;;;;;;;11.73;10.53;;;25.00;90.50;;;;;;5040822;28;20479;-52
2022/06/22 11:56:25;;;;;;;12.17;10.67;;;25.10;90.60;;;;;;5055632;28;20481;-52
2022/06/22 11:59:06;;;;;;;12.00;9.87;;;25.10;91.00;;;;;;5048249;28;21003;-52
2022/06/22 12:01:55;;;;;;;13.40;10.93;;;25.20;90.40;;;;;;5049326;28;20501;-51
2022/06/22 12:04:57;;;;;;;10.70;9.57;;;25.20;90.60;;;;;;5025983;28;20483;-52
2022/06/22 12:07:55;;;;;;;11.17;10.17;;;25.20;91.00;;;;;;5052384;28;20987;-52
2022/06/22 12:10:51;;;;;;;11.37;10.30;;;25.30;90.90;;;;;;5055755;28;20479;-52
2022/06/22 12:15:04;;;;;;;11.93;10.87;;;25.30;90.60;;;;;;5053565;28;20503;-52
2022/06/22 12:16:31;;;;;;;15.37;11.73;;;25.30;90.90;;;;;;5045690;28;20901;-53
2022/06/22 12:19:12;;;;;;;12.57;11.27;;;25.30;90.60;;;;;;5059185;28;20896;-52
2022/06/22 12:22:07;;;;;;;15.70;11.03;;;25.40;90.80;;;;;;5049558;28;20484;-52
2022/06/22 12:24:47;;;;;;;12.93;10.10;;;25.40;90.80;;;;;;5049657;28;20467;-52
2022/06/22 12:27:21;;;;;;;12.10;11.00;;;25.40;91.10;;;;;;5052774;28;20483;-52
2022/06/22 12:30:29;;;;;;;16.60;12.40;;;25.50;90.90;;;;;;5057200;28;20963;-51
2022/06/22 12:33:02;;;;;;;13.37;11.60;;;25.40;91.20;;;;;;5045547;28;21006;-52
2022/06/22 12:35:39;;;;;;;12.17;10.90;;;25.40;91.40;;;;;;5056358;28;20532;-52
2022/06/22 12:38:15;;;;;;;9.57;8.77;;;25.40;91.50;;;;;;5050654;28;20486;-53
2022/06/22 12:40:53;;;;;;;13.23;11.33;;;25.50;91.20;;;;;;5056316;28;20474;-51
2022/06/22 12:43:46;;;;;;;12.27;10.97;;;25.60;91.50;;;;;;5057920;28;20483;-52
2022/06/22 12:46:28;;;;;;;12.97;10.70;;;25.60;91.30;;;;;;5057121;28;20490;-52
2022/06/22 12:49:25;;;;;;;11.97;10.67;;;25.60;91.50;;;;;;5034437;28;20482;-51
2022/06/22 12:52:01;;;;;;;13.37;12.00;;;25.50;91.50;;;;;;5062432;28;20471;-52
2022/06/22 12:54:32;;;;;;;13.23;11.93;;;25.60;91.80;;;;;;5036229;28;20486;-52
2022/06/22 12:57:03;;;;;;;13.63;12.23;;;25.80;91.90;;;;;;5034636;28;20522;-52
2022/06/22 12:59:35;;;;;;;15.70;12.40;;;25.70;91.50;;;;;;5056747;28;20988;-52
2022/06/22 13:02:04;;;;;;;17.67;10.50;;;25.90;91.30;;;;;;5057186;28;20528;-53
2022/06/22 13:04:34;;;;;;;12.00;10.90;;;25.90;91.70;;;;;;5061369;28;20818;-53
2022/06/22 13:07:07;;;;;;;14.93;11.40;;;26.10;92.00;;;;;;5058856;28;20527;-52
2022/06/22 13:09:35;;;;;;;13.13;11.90;;;26.10;92.30;;;;;;5059877;28;20479;-52
2022/06/22 13:12:10;;;;;;;13.10;11.80;;;26.10;92.00;;;;;;5061124;28;20466;-52
2022/06/22 13:14:41;;;;;;;14.73;11.50;;;26.10;91.90;;;;;;5060592;28;20493;-52
2022/06/22 13:17:23;;;;;;;12.13;10.90;;;26.10;91.80;;;;;;5054795;28;20856;-53
2022/06/22 13:20:17;;;;;;;15.30;12.13;;;26.10;91.30;;;;;;5058989;28;20482;-52
2022/06/22 13:22:51;;;;;;;16.87;11.87;;;26.20;91.20;;;;;;5059356;28;20489;-51
2022/06/22 13:25:25;;;;;;;12.33;11.20;;;26.30;91.10;;;;;;5059879;28;20482;-53
2022/06/22 13:27:57;;;;;;;14.53;11.00;;;26.20;90.90;;;;;;5056905;28;20570;-52
2022/06/22 13:30:28;;;;;;;16.53;10.57;;;26.20;91.20;;;;;;5065213;28;20484;-52
2022/06/22 13:33:02;;;;;;;16.83;10.63;;;26.10;91.30;;;;;;5060445;28;20498;-51
2022/06/22 13:35:36;;;;;;;16.23;11.23;;;26.10;91.50;;;;;;5057176;28;20467;-52
2022/06/22 13:38:16;;;;;;;11.50;9.37;;;26.20;91.10;;;;;;5029266;28;20498;-51
2022/06/22 13:40:50;;;;;;;13.53;12.13;;;26.20;90.60;;;;;;5051094;28;20474;-52
2022/06/22 13:44:00;;;;;;;15.63;12.03;;;26.30;91.10;;;;;;5067227;28;21023;-52
2022/06/22 13:46:43;;;;;;;18.10;10.37;;;26.50;91.00;;;;;;5057966;28;20488;-53
2022/06/22 13:49:15;;;;;;;13.53;11.07;;;26.40;90.50;;;;;;5057935;28;20482;-53
2022/06/22 13:52:05;;;;;;;13.63;11.57;;;26.50;90.70;;;;;;5060926;28;20474;-52
2022/06/22 13:55:09;;;;;;;15.10;9.90;;;26.80;90.70;;;;;;5032805;28;20467;-53
2022/06/22 13:57:44;;;;;;;11.90;9.90;;;26.80;90.80;;;;;;5055963;28;20486;-53
2022/06/22 14:00:14;;;;;;;14.37;10.90;;;27.00;90.70;;;;;;5052182;28;20866;-53